»·PEaware :: N48427 KSNA-KIPL

N48427 :: KSNA-KIPL

FLIGHT INFORMATION

Flight Status: Arrived
Operator: Privately registered:
United States
More flights under this callsign
Pilot: Carson T. (20437)
Aircraft: CESSNA 172 SKYHAWK
(C172)
More flights by this aircraft type
Origin: KSNA John Wayne-Orange Co
United States
Destination: KIPL Imperial Co
United States
More flights between these airports :: More routes between these airports
Route:
File this flight plan on PilotEdge
Remarks:
Altitude:
(Current/Filed)
7,500ft
Speed:
(Current/Filed)
120kts
Departed: 26-Oct-18 04:39 PM
Arrived: 26-Oct-18 05:49 PM
Distance/Time
Traveled:
125nm/1:10
Distance/Time
To Go:
Arrived

Flight Plot

Page will automatically refresh every two minutes.


Map Options




Map Legend


Flown Route
Filed Route
Departure Airport
Arrival Airport
Navaid (VOR, NDB)
Fix

Horizontal Profiles

Position Reports

Time Latitude Longitude Heading Altitude Ground
Speed
26-Oct-18 16:18 33.673572 -117.872564 297 60ft 0kts
26-Oct-18 16:19 33.673572 -117.872564 297 60ft 0kts
26-Oct-18 16:20 33.673572 -117.872564 297 60ft 0kts
26-Oct-18 16:21 33.673572 -117.872564 297 60ft 0kts
26-Oct-18 16:22 33.673572 -117.872564 297 60ft 0kts
26-Oct-18 16:23 33.673572 -117.872564 297 60ft 0kts
26-Oct-18 16:24 33.673572 -117.872564 297 60ft 0kts
26-Oct-18 16:25 33.673572 -117.872564 297 60ft 0kts
26-Oct-18 16:26 33.673572 -117.872564 297 60ft 0kts
26-Oct-18 16:27 33.673572 -117.872564 297 60ft 0kts
26-Oct-18 16:28 33.673572 -117.872564 297 60ft 0kts
26-Oct-18 16:29 33.673572 -117.872564 297 60ft 0kts
26-Oct-18 16:30 33.673572 -117.872564 297 60ft 0kts
26-Oct-18 16:31 33.673572 -117.872564 297 60ft 0kts
26-Oct-18 16:32 33.673572 -117.872564 297 60ft 0kts
26-Oct-18 16:33 33.673572 -117.872564 297 60ft 0kts
26-Oct-18 16:34 33.673575 -117.872570 297 60ft 0kts
26-Oct-18 16:35 33.673470 -117.872521 120 60ft 10kts
26-Oct-18 16:36 33.675571 -117.870400 27 60ft 9kts
26-Oct-18 16:37 33.678718 -117.868403 27 60ft 13kts
26-Oct-18 16:38 33.681268 -117.866588 96 60ft 10kts
26-Oct-18 16:39 33.681209 -117.866398 118 60ft 0kts
26-Oct-18 16:40 33.680542 -117.865738 205 60ft 17kts
26-Oct-18 16:41 33.663928 -117.876334 207 523ft 78kts
26-Oct-18 16:42 33.642358 -117.873758 156 1139ft 92kts
26-Oct-18 16:43 33.617615 -117.861394 161 1715ft 94kts
26-Oct-18 16:44 33.595506 -117.845620 132 2274ft 101kts
26-Oct-18 16:45 33.582291 -117.816617 85 2780ft 107kts
26-Oct-18 16:46 33.586412 -117.781193 84 3282ft 108kts
26-Oct-18 16:47 33.590676 -117.745663 84 3777ft 109kts
26-Oct-18 16:48 33.594999 -117.710032 84 4275ft 107kts
26-Oct-18 16:49 33.596425 -117.674958 99 4771ft 104kts
26-Oct-18 16:50 33.589878 -117.642015 106 5260ft 102kts
26-Oct-18 16:51 33.580228 -117.609672 109 5760ft 104kts
26-Oct-18 16:52 33.569510 -117.577744 110 6258ft 103kts
26-Oct-18 16:53 33.558726 -117.546846 109 6753ft 99kts
26-Oct-18 16:54 33.547214 -117.514282 110 7062ft 111kts
26-Oct-18 16:55 33.534944 -117.479881 109 7362ft 113kts
26-Oct-18 16:56 33.522395 -117.444650 110 7520ft 123kts
26-Oct-18 16:57 33.508791 -117.406737 110 7517ft 124kts
26-Oct-18 16:58 33.495175 -117.368695 110 7515ft 124kts
26-Oct-18 16:59 33.481630 -117.330844 111 7511ft 125kts
26-Oct-18 17:00 33.468186 -117.293256 113 7508ft 119kts
26-Oct-18 17:01 33.455456 -117.257781 113 7506ft 115kts
26-Oct-18 17:02 33.442843 -117.222619 113 7503ft 115kts
26-Oct-18 17:03 33.430297 -117.187673 113 7502ft 114kts
26-Oct-18 17:04 33.417736 -117.152727 113 7503ft 114kts
26-Oct-18 17:05 33.405126 -117.117687 113 7505ft 115kts
26-Oct-18 17:06 33.391453 -117.083136 112 7512ft 118kts
26-Oct-18 17:07 33.377765 -117.046807 111 7515ft 123kts
26-Oct-18 17:08 33.364198 -117.009749 110 7520ft 117kts
26-Oct-18 17:09 33.350941 -116.973149 110 7525ft 121kts
26-Oct-18 17:10 33.337415 -116.935821 109 7530ft 122kts
26-Oct-18 17:11 33.323824 -116.898335 109 7535ft 123kts
26-Oct-18 17:12 33.310275 -116.860996 109 7538ft 123kts
26-Oct-18 17:13 33.296892 -116.823361 109 7538ft 123kts
26-Oct-18 17:14 33.283337 -116.785735 109 7538ft 123kts
26-Oct-18 17:15 33.269611 -116.747946 109 7539ft 123kts
26-Oct-18 17:16 33.257125 -116.713668 109 7539ft 124kts
26-Oct-18 17:17 33.249285 -116.692173 109 7539ft 124kts
26-Oct-18 17:18 33.244142 -116.678080 109 7539ft 124kts
26-Oct-18 17:19 33.230393 -116.640438 109 7539ft 124kts
26-Oct-18 17:20 33.216580 -116.602658 109 7531ft 124kts
26-Oct-18 17:21 33.202707 -116.564768 110 7525ft 125kts
26-Oct-18 17:22 33.188761 -116.526739 110 7559ft 122kts
26-Oct-18 17:23 33.175016 -116.489265 110 7574ft 125kts
26-Oct-18 17:24 33.161155 -116.451542 110 7575ft 125kts
26-Oct-18 17:25 33.147276 -116.413808 110 7579ft 124kts
26-Oct-18 17:26 33.130801 -116.377677 129 7580ft 127kts
26-Oct-18 17:27 33.107455 -116.346641 129 7576ft 127kts
26-Oct-18 17:28 33.084128 -116.315144 129 7565ft 127kts
26-Oct-18 17:29 33.060942 -116.283412 129 7557ft 127kts
26-Oct-18 17:30 33.037829 -116.251532 129 7550ft 127kts
26-Oct-18 17:31 33.014736 -116.219622 129 7544ft 127kts
26-Oct-18 17:32 32.991783 -116.187994 129 7539ft 127kts
26-Oct-18 17:33 32.968724 -116.156430 128 7537ft 126kts
26-Oct-18 17:34 32.945780 -116.125303 128 7539ft 125kts
26-Oct-18 17:35 32.922873 -116.094182 128 7539ft 125kts
26-Oct-18 17:36 32.900032 -116.063022 128 7512ft 126kts
26-Oct-18 17:37 32.877290 -116.031880 128 7510ft 125kts
26-Oct-18 17:38 32.854603 -116.000716 128 7510ft 124kts
26-Oct-18 17:39 32.831960 -115.967428 109 7210ft 135kts
26-Oct-18 17:40 32.824293 -115.923870 95 6711ft 136kts
26-Oct-18 17:41 32.826440 -115.879430 84 6209ft 135kts
26-Oct-18 17:42 32.827844 -115.834615 85 5707ft 136kts
26-Oct-18 17:43 32.829136 -115.790057 85 5205ft 133kts
26-Oct-18 17:44 32.830402 -115.746094 85 4703ft 133kts
26-Oct-18 17:45 32.831615 -115.703032 86 4206ft 128kts
26-Oct-18 17:46 32.832566 -115.664258 88 3640ft 101kts
26-Oct-18 17:47 32.829803 -115.631681 98 2745ft 101kts
26-Oct-18 17:48 32.824947 -115.597674 98 2536ft 109kts
26-Oct-18 17:49 32.822001 -115.568998 99 1657ft 79kts
26-Oct-18 17:50 32.831245 -115.564185 289 634ft 61kts
26-Oct-18 17:51 32.832106 -115.582063 270 -44ft 28kts
26-Oct-18 17:52 32.831547 -115.585081 89 -44ft 0kts
26-Oct-18 17:53 32.831547 -115.585080 89 -44ft 0kts
26-Oct-18 17:54 32.831547 -115.585080 89 -44ft 0kts
26-Oct-18 17:55 32.831547 -115.585080 89 -44ft 0kts
26-Oct-18 17:56 32.831547 -115.585080 89 -44ft 0kts
26-Oct-18 17:57 32.831547 -115.585080 89 -44ft 0kts
26-Oct-18 17:58 32.831547 -115.585080 89 -44ft 0kts
26-Oct-18 17:59 32.831547 -115.585080 89 -44ft 0kts
26-Oct-18 18:00 32.831547 -115.585080 89 -44ft 0kts
26-Oct-18 18:01 32.831547 -115.585080 89 -44ft 0kts
26-Oct-18 18:02 32.831547 -115.585081 89 -44ft 0kts
26-Oct-18 18:03 32.831547 -115.585081 89 -44ft 0kts
26-Oct-18 18:04 32.831547 -115.585081 89 -44ft 0kts
26-Oct-18 18:05 32.831547 -115.585081 89 -44ft 0kts

Navigation Log

Ident Type
1. KSNA Airport
2. KIPL Airport